sensor_id;sensor_type;location;lat;lon;timestamp;temperature;humidity
31731;DHT22;18310;55.586;12.286;2022-11-15T00:02:10;13.10;71.60
31731;DHT22;18310;55.586;12.286;2022-11-15T00:05:14;13.10;71.70
31731;DHT22;18310;55.586;12.286;2022-11-15T00:08:20;13.00;71.40
31731;DHT22;18310;55.586;12.286;2022-11-15T00:11:25;13.10;71.40
31731;DHT22;18310;55.586;12.286;2022-11-15T00:14:31;13.00;71.40
31731;DHT22;18310;55.586;12.286;2022-11-15T00:17:34;13.10;71.60
31731;DHT22;18310;55.586;12.286;2022-11-15T00:20:38;13.10;71.40
31731;DHT22;18310;55.586;12.286;2022-11-15T00:23:44;13.10;71.30
31731;DHT22;18310;55.586;12.286;2022-11-15T00:26:47;13.10;71.30
31731;DHT22;18310;55.586;12.286;2022-11-15T00:29:51;13.10;71.30
31731;DHT22;18310;55.586;12.286;2022-11-15T00:32:56;13.10;71.30
31731;DHT22;18310;55.586;12.286;2022-11-15T00:35:59;13.10;71.20
31731;DHT22;18310;55.586;12.286;2022-11-15T00:39:05;13.10;70.80
31731;DHT22;18310;55.586;12.286;2022-11-15T00:42:08;13.20;71.10
31731;DHT22;18310;55.586;12.286;2022-11-15T00:45:12;13.20;71.20
31731;DHT22;18310;55.586;12.286;2022-11-15T00:48:15;13.20;71.30
31731;DHT22;18310;55.586;12.286;2022-11-15T00:51:18;13.20;71.40
31731;DHT22;18310;55.586;12.286;2022-11-15T00:54:23;13.20;71.30
31731;DHT22;18310;55.586;12.286;2022-11-15T00:57:26;13.20;71.20
31731;DHT22;18310;55.586;12.286;2022-11-15T01:00:29;13.20;71.10
31731;DHT22;18310;55.586;12.286;2022-11-15T01:03:33;13.20;71.20
31731;DHT22;18310;55.586;12.286;2022-11-15T01:06:36;13.10;71.10
31731;DHT22;18310;55.586;12.286;2022-11-15T01:09:41;13.10;71.00
31731;DHT22;18310;55.586;12.286;2022-11-15T01:12:44;13.20;71.00
31731;DHT22;18310;55.586;12.286;2022-11-15T01:15:47;13.10;71.10
31731;DHT22;18310;55.586;12.286;2022-11-15T01:18:50;13.10;71.00
31731;DHT22;18310;55.586;12.286;2022-11-15T01:21:53;13.10;71.00
31731;DHT22;18310;55.586;12.286;2022-11-15T01:24:58;13.10;70.90
31731;DHT22;18310;55.586;12.286;2022-11-15T01:28:02;13.10;70.80
31731;DHT22;18310;55.586;12.286;2022-11-15T01:31:07;13.10;70.90
31731;DHT22;18310;55.586;12.286;2022-11-15T01:34:14;13.10;70.90
31731;DHT22;18310;55.586;12.286;2022-11-15T01:37:17;13.20;71.00
31731;DHT22;18310;55.586;12.286;2022-11-15T01:40:22;13.20;71.00
31731;DHT22;18310;55.586;12.286;2022-11-15T01:43:28;13.10;70.70
31731;DHT22;18310;55.586;12.286;2022-11-15T01:46:35;12.80;70.50
31731;DHT22;18310;55.586;12.286;2022-11-15T01:49:52;13.20;70.70
31731;DHT22;18310;55.586;12.286;2022-11-15T01:52:59;13.20;70.40
31731;DHT22;18310;55.586;12.286;2022-11-15T01:56:05;13.20;70.60
31731;DHT22;18310;55.586;12.286;2022-11-15T01:59:11;13.20;70.30
31731;DHT22;18310;55.586;12.286;2022-11-15T02:02:15;13.40;70.70
31731;DHT22;18310;55.586;12.286;2022-11-15T02:05:18;13.20;70.60
31731;DHT22;18310;55.586;12.286;2022-11-15T02:08:22;13.20;71.20
31731;DHT22;18310;55.586;12.286;2022-11-15T02:11:28;13.20;70.70
31731;DHT22;18310;55.586;12.286;2022-11-15T02:14:31;13.20;70.60
31731;DHT22;18310;55.586;12.286;2022-11-15T02:17:52;13.20;70.70
31731;DHT22;18310;55.586;12.286;2022-11-15T02:21:15;13.20;70.60
31731;DHT22;18310;55.586;12.286;2022-11-15T02:24:53;13.20;70.70
31731;DHT22;18310;55.586;12.286;2022-11-15T02:28:37;13.20;70.50
31731;DHT22;18310;55.586;12.286;2022-11-15T02:31:54;13.20;70.30
31731;DHT22;18310;55.586;12.286;2022-11-15T02:35:12;13.20;70.40
31731;DHT22;18310;55.586;12.286;2022-11-15T02:38:29;13.20;70.40
31731;DHT22;18310;55.586;12.286;2022-11-15T02:41:44;13.20;70.50
31731;DHT22;18310;55.586;12.286;2022-11-15T02:44:51;13.10;70.40
31731;DHT22;18310;55.586;12.286;2022-11-15T02:48:00;13.20;70.60
31731;DHT22;18310;55.586;12.286;2022-11-15T02:51:06;13.20;70.40
31731;DHT22;18310;55.586;12.286;2022-11-15T02:54:12;13.20;70.50
31731;DHT22;18310;55.586;12.286;2022-11-15T02:57:23;13.10;70.30
31731;DHT22;18310;55.586;12.286;2022-11-15T03:00:36;13.20;70.90
31731;DHT22;18310;55.586;12.286;2022-11-15T03:03:57;13.10;70.40
31731;DHT22;18310;55.586;12.286;2022-11-15T03:07:11;13.10;70.20
31731;DHT22;18310;55.586;12.286;2022-11-15T03:10:22;13.10;70.10
31731;DHT22;18310;55.586;12.286;2022-11-15T03:13:35;13.10;70.00
31731;DHT22;18310;55.586;12.286;2022-11-15T03:16:46;13.10;70.00
31731;DHT22;18310;55.586;12.286;2022-11-15T03:19:57;13.10;70.10
31731;DHT22;18310;55.586;12.286;2022-11-15T03:23:06;13.00;69.80
31731;DHT22;18310;55.586;12.286;2022-11-15T03:26:13;13.00;69.80
31731;DHT22;18310;55.586;12.286;2022-11-15T03:29:24;12.90;69.80
31731;DHT22;18310;55.586;12.286;2022-11-15T03:32:36;13.10;70.20
31731;DHT22;18310;55.586;12.286;2022-11-15T03:35:45;12.80;70.20
31731;DHT22;18310;55.586;12.286;2022-11-15T03:38:52;12.80;70.40
31731;DHT22;18310;55.586;12.286;2022-11-15T03:42:08;12.80;70.60
31731;DHT22;18310;55.586;12.286;2022-11-15T03:45:22;12.80;70.90
31731;DHT22;18310;55.586;12.286;2022-11-15T03:48:33;12.90;70.70
31731;DHT22;18310;55.586;12.286;2022-11-15T03:51:41;12.90;71.10
31731;DHT22;18310;55.586;12.286;2022-11-15T03:54:52;12.90;70.70
31731;DHT22;18310;55.586;12.286;2022-11-15T03:57:59;12.90;71.00
31731;DHT22;18310;55.586;12.286;2022-11-15T04:01:03;12.90;71.30
31731;DHT22;18310;55.586;12.286;2022-11-15T04:04:06;13.00;71.50
31731;DHT22;18310;55.586;12.286;2022-11-15T04:07:12;13.00;71.50
31731;DHT22;18310;55.586;12.286;2022-11-15T04:10:18;13.00;71.50
31731;DHT22;18310;55.586;12.286;2022-11-15T04:13:21;13.00;71.40
31731;DHT22;18310;55.586;12.286;2022-11-15T04:16:24;13.20;71.70
31731;DHT22;18310;55.586;12.286;2022-11-15T04:19:28;13.10;71.60
31731;DHT22;18310;55.586;12.286;2022-11-15T04:22:52;13.10;71.60
31731;DHT22;18310;55.586;12.286;2022-11-15T04:26:11;13.00;71.40
31731;DHT22;18310;55.586;12.286;2022-11-15T04:29:19;13.00;71.50
31731;DHT22;18310;55.586;12.286;2022-11-15T04:32:37;13.00;71.60
31731;DHT22;18310;55.586;12.286;2022-11-15T04:35:42;13.00;71.70
31731;DHT22;18310;55.586;12.286;2022-11-15T04:39:07;13.00;71.80
31731;DHT22;18310;55.586;12.286;2022-11-15T04:42:10;12.90;71.80
31731;DHT22;18310;55.586;12.286;2022-11-15T04:45:14;13.00;72.10
31731;DHT22;18310;55.586;12.286;2022-11-15T04:48:18;13.00;72.10
31731;DHT22;18310;55.586;12.286;2022-11-15T04:51:21;13.00;72.10
31731;DHT22;18310;55.586;12.286;2022-11-15T04:54:26;13.10;72.10
31731;DHT22;18310;55.586;12.286;2022-11-15T04:57:30;13.10;72.00
31731;DHT22;18310;55.586;12.286;2022-11-15T05:00:33;13.90;72.50
31731;DHT22;18310;55.586;12.286;2022-11-15T05:03:36;13.70;72.20
31731;DHT22;18310;55.586;12.286;2022-11-15T05:06:57;13.10;71.60
31731;DHT22;18310;55.586;12.286;2022-11-15T05:10:02;13.30;71.90
31731;DHT22;18310;55.586;12.286;2022-11-15T05:13:07;13.10;71.70
31731;DHT22;18310;55.586;12.286;2022-11-15T05:16:10;13.10;71.80
31731;DHT22;18310;55.586;12.286;2022-11-15T05:19:13;13.10;71.60
31731;DHT22;18310;55.586;12.286;2022-11-15T05:22:17;13.10;71.60
31731;DHT22;18310;55.586;12.286;2022-11-15T05:25:22;12.80;71.60
31731;DHT22;18310;55.586;12.286;2022-11-15T05:28:25;13.10;71.80
31731;DHT22;18310;55.586;12.286;2022-11-15T05:31:28;13.10;71.90
31731;DHT22;18310;55.586;12.286;2022-11-15T05:34:32;13.20;72.10
31731;DHT22;18310;55.586;12.286;2022-11-15T05:37:36;13.10;72.20
31731;DHT22;18310;55.586;12.286;2022-11-15T05:40:41;13.10;72.10
31731;DHT22;18310;55.586;12.286;2022-11-15T05:43:44;13.10;72.10
31731;DHT22;18310;55.586;12.286;2022-11-15T05:46:52;13.10;71.90
31731;DHT22;18310;55.586;12.286;2022-11-15T05:50:02;13.20;71.80
31731;DHT22;18310;55.586;12.286;2022-11-15T05:53:06;13.20;71.90
31731;DHT22;18310;55.586;12.286;2022-11-15T05:56:12;13.20;71.90
31731;DHT22;18310;55.586;12.286;2022-11-15T05:59:16;13.10;71.80
31731;DHT22;18310;55.586;12.286;2022-11-15T06:02:21;13.20;71.90
31731;DHT22;18310;55.586;12.286;2022-11-15T06:05:25;13.10;72.00
31731;DHT22;18310;55.586;12.286;2022-11-15T06:08:29;13.20;72.10
31731;DHT22;18310;55.586;12.286;2022-11-15T06:11:34;13.20;72.20
31731;DHT22;18310;55.586;12.286;2022-11-15T06:14:37;13.20;72.20
31731;DHT22;18310;55.586;12.286;2022-11-15T06:17:41;12.40;71.60
31731;DHT22;18310;55.586;12.286;2022-11-15T06:20:47;13.20;72.10
31731;DHT22;18310;55.586;12.286;2022-11-15T06:23:50;13.20;72.20
31731;DHT22;18310;55.586;12.286;2022-11-15T06:26:55;13.20;72.20
31731;DHT22;18310;55.586;12.286;2022-11-15T06:29:59;13.20;72.30
31731;DHT22;18310;55.586;12.286;2022-11-15T06:33:03;13.20;72.20
31731;DHT22;18310;55.586;12.286;2022-11-15T06:36:09;13.20;72.10
31731;DHT22;18310;55.586;12.286;2022-11-15T06:39:19;13.20;72.00
31731;DHT22;18310;55.586;12.286;2022-11-15T06:42:23;13.20;72.10
31731;DHT22;18310;55.586;12.286;2022-11-15T06:45:27;13.70;72.40
31731;DHT22;18310;55.586;12.286;2022-11-15T06:48:31;13.20;72.30
31731;DHT22;18310;55.586;12.286;2022-11-15T06:51:35;13.20;72.50
31731;DHT22;18310;55.586;12.286;2022-11-15T06:54:38;13.20;72.40
31731;DHT22;18310;55.586;12.286;2022-11-15T06:57:48;13.80;72.70
31731;DHT22;18310;55.586;12.286;2022-11-15T07:00:53;13.20;72.70
31731;DHT22;18310;55.586;12.286;2022-11-15T07:03:57;13.20;72.70
31731;DHT22;18310;55.586;12.286;2022-11-15T07:07:00;13.20;72.80
31731;DHT22;18310;55.586;12.286;2022-11-15T07:10:05;13.20;73.00
31731;DHT22;18310;55.586;12.286;2022-11-15T07:13:10;13.10;72.80
31731;DHT22;18310;55.586;12.286;2022-11-15T07:16:13;12.60;72.30
31731;DHT22;18310;55.586;12.286;2022-11-15T07:19:17;13.60;72.80
31731;DHT22;18310;55.586;12.286;2022-11-15T07:22:20;13.10;72.60
31731;DHT22;18310;55.586;12.286;2022-11-15T07:25:23;13.10;72.70
31731;DHT22;18310;55.586;12.286;2022-11-15T07:28:28;13.10;72.80
31731;DHT22;18310;55.586;12.286;2022-11-15T07:31:32;13.10;72.80
31731;DHT22;18310;55.586;12.286;2022-11-15T07:34:35;13.00;72.90
31731;DHT22;18310;55.586;12.286;2022-11-15T07:37:39;13.10;73.10
31731;DHT22;18310;55.586;12.286;2022-11-15T07:40:42;13.10;73.20
31731;DHT22;18310;55.586;12.286;2022-11-15T07:43:46;13.10;73.10
31731;DHT22;18310;55.586;12.286;2022-11-15T07:46:50;13.00;73.20
31731;DHT22;18310;55.586;12.286;2022-11-15T07:49:53;13.00;73.30
31731;DHT22;18310;55.586;12.286;2022-11-15T07:52:57;13.00;73.60
31731;DHT22;18310;55.586;12.286;2022-11-15T07:56:01;13.00;73.60
31731;DHT22;18310;55.586;12.286;2022-11-15T07:59:06;13.00;73.70
31731;DHT22;18310;55.586;12.286;2022-11-15T08:02:10;13.00;73.80
31731;DHT22;18310;55.586;12.286;2022-11-15T08:05:13;13.00;73.80
31731;DHT22;18310;55.586;12.286;2022-11-15T08:08:17;12.90;73.80
31731;DHT22;18310;55.586;12.286;2022-11-15T08:11:21;12.80;73.70
31731;DHT22;18310;55.586;12.286;2022-11-15T08:14:26;12.90;73.90
31731;DHT22;18310;55.586;12.286;2022-11-15T08:17:29;12.90;74.00
31731;DHT22;18310;55.586;12.286;2022-11-15T08:20:35;12.90;74.00
31731;DHT22;18310;55.586;12.286;2022-11-15T08:23:39;12.90;74.00
31731;DHT22;18310;55.586;12.286;2022-11-15T08:26:42;12.90;74.00
31731;DHT22;18310;55.586;12.286;2022-11-15T08:29:48;12.80;74.00
31731;DHT22;18310;55.586;12.286;2022-11-15T08:32:59;12.80;73.90
31731;DHT22;18310;55.586;12.286;2022-11-15T08:36:03;12.80;73.90
31731;DHT22;18310;55.586;12.286;2022-11-15T08:39:10;12.80;74.00
31731;DHT22;18310;55.586;12.286;2022-11-15T08:42:14;12.70;74.00
31731;DHT22;18310;55.586;12.286;2022-11-15T08:45:22;12.70;74.00
31731;DHT22;18310;55.586;12.286;2022-11-15T08:48:25;12.70;74.00
31731;DHT22;18310;55.586;12.286;2022-11-15T08:51:29;12.60;73.90
31731;DHT22;18310;55.586;12.286;2022-11-15T08:54:32;12.70;74.10
31731;DHT22;18310;55.586;12.286;2022-11-15T08:57:35;12.70;74.20
31731;DHT22;18310;55.586;12.286;2022-11-15T09:00:40;12.70;74.10
31731;DHT22;18310;55.586;12.286;2022-11-15T09:03:44;12.60;74.10
31731;DHT22;18310;55.586;12.286;2022-11-15T09:06:47;12.40;74.10
31731;DHT22;18310;55.586;12.286;2022-11-15T09:09:51;12.60;74.30
31731;DHT22;18310;55.586;12.286;2022-11-15T09:12:56;12.60;74.40
31731;DHT22;18310;55.586;12.286;2022-11-15T09:16:01;12.50;74.40
31731;DHT22;18310;55.586;12.286;2022-11-15T09:19:05;12.50;74.60
31731;DHT22;18310;55.586;12.286;2022-11-15T09:22:12;12.50;74.70
31731;DHT22;18310;55.586;12.286;2022-11-15T09:25:16;12.50;74.80
31731;DHT22;18310;55.586;12.286;2022-11-15T09:28:19;12.50;74.80
31731;DHT22;18310;55.586;12.286;2022-11-15T09:31:24;12.50;74.90
31731;DHT22;18310;55.586;12.286;2022-11-15T09:34:28;12.50;74.90
31731;DHT22;18310;55.586;12.286;2022-11-15T09:37:31;12.50;74.90
31731;DHT22;18310;55.586;12.286;2022-11-15T09:40:36;13.20;75.30
31731;DHT22;18310;55.586;12.286;2022-11-15T09:43:47;12.60;74.90
31731;DHT22;18310;55.586;12.286;2022-11-15T09:47:08;12.50;75.00
31731;DHT22;18310;55.586;12.286;2022-11-15T09:50:36;12.60;75.20
31731;DHT22;18310;55.586;12.286;2022-11-15T09:53:48;12.70;75.30
31731;DHT22;18310;55.586;12.286;2022-11-15T09:57:23;12.60;75.30
31731;DHT22;18310;55.586;12.286;2022-11-15T10:00:35;12.60;75.20
31731;DHT22;18310;55.586;12.286;2022-11-15T10:03:51;13.20;75.40
31731;DHT22;18310;55.586;12.286;2022-11-15T10:07:00;12.60;74.80
31731;DHT22;18310;55.586;12.286;2022-11-15T10:10:12;12.60;75.00
31731;DHT22;18310;55.586;12.286;2022-11-15T10:13:23;12.60;75.00
31731;DHT22;18310;55.586;12.286;2022-11-15T10:20:46;12.60;75.20
31731;DHT22;18310;55.586;12.286;2022-11-15T10:24:11;12.60;75.10
31731;DHT22;18310;55.586;12.286;2022-11-15T10:27:17;12.60;75.10
31731;DHT22;18310;55.586;12.286;2022-11-15T10:30:22;11.80;74.80
31731;DHT22;18310;55.586;12.286;2022-11-15T10:33:32;12.70;75.40
31731;DHT22;18310;55.586;12.286;2022-11-15T10:36:38;12.60;75.40
31731;DHT22;18310;55.586;12.286;2022-11-15T10:40:03;12.70;75.50
31731;DHT22;18310;55.586;12.286;2022-11-15T10:43:15;12.70;75.60
31731;DHT22;18310;55.586;12.286;2022-11-15T10:46:21;12.70;75.50
31731;DHT22;18310;55.586;12.286;2022-11-15T10:50:00;12.80;75.40
31731;DHT22;18310;55.586;12.286;2022-11-15T10:53:19;12.80;75.40
31731;DHT22;18310;55.586;12.286;2022-11-15T10:56:26;12.80;75.40
31731;DHT22;18310;55.586;12.286;2022-11-15T10:59:32;12.90;75.20
31731;DHT22;18310;55.586;12.286;2022-11-15T11:02:45;12.80;75.00
31731;DHT22;18310;55.586;12.286;2022-11-15T11:06:05;12.90;75.00
31731;DHT22;18310;55.586;12.286;2022-11-15T11:09:24;12.80;74.90
31731;DHT22;18310;55.586;12.286;2022-11-15T11:12:33;12.80;75.10
31731;DHT22;18310;55.586;12.286;2022-11-15T11:15:36;12.80;74.90
31731;DHT22;18310;55.586;12.286;2022-11-15T11:18:46;12.70;74.90
31731;DHT22;18310;55.586;12.286;2022-11-15T11:22:06;12.80;75.10
31731;DHT22;18310;55.586;12.286;2022-11-15T11:25:30;12.90;75.20
31731;DHT22;18310;55.586;12.286;2022-11-15T11:28:44;12.90;75.30
31731;DHT22;18310;55.586;12.286;2022-11-15T11:32:01;12.90;75.30
31731;DHT22;18310;55.586;12.286;2022-11-15T11:35:14;12.90;75.00
31731;DHT22;18310;55.586;12.286;2022-11-15T11:38:53;13.00;75.10
31731;DHT22;18310;55.586;12.286;2022-11-15T11:42:09;13.00;75.00
31731;DHT22;18310;55.586;12.286;2022-11-15T11:45:23;13.00;74.70
31731;DHT22;18310;55.586;12.286;2022-11-15T11:48:50;13.00;74.60
31731;DHT22;18310;55.586;12.286;2022-11-15T11:52:03;13.50;75.00
31731;DHT22;18310;55.586;12.286;2022-11-15T11:55:14;13.00;74.80
31731;DHT22;18310;55.586;12.286;2022-11-15T11:58:25;13.00;75.00
31731;DHT22;18310;55.586;12.286;2022-11-15T12:01:39;13.00;74.80
31731;DHT22;18310;55.586;12.286;2022-11-15T12:04:50;13.00;74.80
31731;DHT22;18310;55.586;12.286;2022-11-15T12:08:01;13.00;74.60
31731;DHT22;18310;55.586;12.286;2022-11-15T12:11:14;13.10;74.80
31731;DHT22;18310;55.586;12.286;2022-11-15T12:14:32;13.10;74.50
31731;DHT22;18310;55.586;12.286;2022-11-15T12:17:40;13.60;74.70
31731;DHT22;18310;55.586;12.286;2022-11-15T12:20:57;13.20;74.40
31731;DHT22;18310;55.586;12.286;2022-11-15T12:24:04;13.10;74.10
31731;DHT22;18310;55.586;12.286;2022-11-15T12:27:16;13.20;74.30
31731;DHT22;18310;55.586;12.286;2022-11-15T12:30:40;13.20;74.00
31731;DHT22;18310;55.586;12.286;2022-11-15T12:33:49;13.20;73.30
31731;DHT22;18310;55.586;12.286;2022-11-15T12:36:52;13.30;73.60
31731;DHT22;18310;55.586;12.286;2022-11-15T12:40:21;13.30;73.70
31731;DHT22;18310;55.586;12.286;2022-11-15T12:43:39;13.30;73.50
31731;DHT22;18310;55.586;12.286;2022-11-15T12:47:03;13.40;73.70
31731;DHT22;18310;55.586;12.286;2022-11-15T12:50:52;13.30;73.60
31731;DHT22;18310;55.586;12.286;2022-11-15T12:53:59;13.40;73.40
31731;DHT22;18310;55.586;12.286;2022-11-15T12:57:32;13.40;73.60
31731;DHT22;18310;55.586;12.286;2022-11-15T13:00:38;14.10;74.10
31731;DHT22;18310;55.586;12.286;2022-11-15T13:04:16;13.40;73.80
31731;DHT22;18310;55.586;12.286;2022-11-15T13:07:55;13.40;73.60
31731;DHT22;18310;55.586;12.286;2022-11-15T13:11:44;13.40;73.20
31731;DHT22;18310;55.586;12.286;2022-11-15T13:14:51;13.30;73.20
31731;DHT22;18310;55.586;12.286;2022-11-15T13:17:57;13.40;73.50
31731;DHT22;18310;55.586;12.286;2022-11-15T13:21:18;13.40;73.50
31731;DHT22;18310;55.586;12.286;2022-11-15T13:24:46;13.60;73.80
31731;DHT22;18310;55.586;12.286;2022-11-15T13:27:51;13.40;73.60
31731;DHT22;18310;55.586;12.286;2022-11-15T13:30:58;13.40;73.50
31731;DHT22;18310;55.586;12.286;2022-11-15T13:34:16;13.40;73.60
31731;DHT22;18310;55.586;12.286;2022-11-15T13:37:45;13.30;73.50
31731;DHT22;18310;55.586;12.286;2022-11-15T13:40:50;14.80;74.50
31731;DHT22;18310;55.586;12.286;2022-11-15T13:44:00;13.40;73.60
31731;DHT22;18310;55.586;12.286;2022-11-15T13:47:29;13.40;73.60
31731;DHT22;18310;55.586;12.286;2022-11-15T13:50:36;13.40;73.50
31731;DHT22;18310;55.586;12.286;2022-11-15T13:53:44;13.40;74.10
31731;DHT22;18310;55.586;12.286;2022-11-15T13:57:00;12.70;73.30
31731;DHT22;18310;55.586;12.286;2022-11-15T14:00:26;13.30;73.50
31731;DHT22;18310;55.586;12.286;2022-11-15T14:03:37;13.50;73.50
31731;DHT22;18310;55.586;12.286;2022-11-15T14:06:50;13.40;73.50
31731;DHT22;18310;55.586;12.286;2022-11-15T14:09:56;13.40;73.50
31731;DHT22;18310;55.586;12.286;2022-11-15T14:13:00;13.40;73.40
31731;DHT22;18310;55.586;12.286;2022-11-15T14:16:19;13.40;73.50
31731;DHT22;18310;55.586;12.286;2022-11-15T14:19:40;13.40;73.10
31731;DHT22;18310;55.586;12.286;2022-11-15T14:22:51;13.40;73.40
31731;DHT22;18310;55.586;12.286;2022-11-15T14:25:59;13.50;73.60
31731;DHT22;18310;55.586;12.286;2022-11-15T14:29:25;13.50;73.70
31731;DHT22;18310;55.586;12.286;2022-11-15T14:32:39;13.50;73.70
31731;DHT22;18310;55.586;12.286;2022-11-15T14:35:47;13.50;73.70
31731;DHT22;18310;55.586;12.286;2022-11-15T14:38:50;13.50;73.60
31731;DHT22;18310;55.586;12.286;2022-11-15T14:41:59;13.50;73.30
31731;DHT22;18310;55.586;12.286;2022-11-15T14:45:11;13.50;72.80
31731;DHT22;18310;55.586;12.286;2022-11-15T14:48:21;13.40;72.30
31731;DHT22;18310;55.586;12.286;2022-11-15T14:51:24;13.40;72.00
31731;DHT22;18310;55.586;12.286;2022-11-15T14:54:28;13.40;72.10
31731;DHT22;18310;55.586;12.286;2022-11-15T14:57:33;13.40;72.10
31731;DHT22;18310;55.586;12.286;2022-11-15T15:00:38;13.30;72.20
31731;DHT22;18310;55.586;12.286;2022-11-15T15:03:44;13.30;72.10
31731;DHT22;18310;55.586;12.286;2022-11-15T15:06:48;13.20;72.10
31731;DHT22;18310;55.586;12.286;2022-11-15T15:09:52;13.30;72.20
31731;DHT22;18310;55.586;12.286;2022-11-15T15:13:17;13.30;72.20
31731;DHT22;18310;55.586;12.286;2022-11-15T15:16:22;13.40;72.30
31731;DHT22;18310;55.586;12.286;2022-11-15T15:19:27;13.20;72.20
31731;DHT22;18310;55.586;12.286;2022-11-15T15:22:30;13.20;72.10
31731;DHT22;18310;55.586;12.286;2022-11-15T15:25:35;13.20;72.00
31731;DHT22;18310;55.586;12.286;2022-11-15T15:28:38;13.30;71.90
31731;DHT22;18310;55.586;12.286;2022-11-15T15:31:42;13.20;71.80
31731;DHT22;18310;55.586;12.286;2022-11-15T15:34:48;13.30;71.60
31731;DHT22;18310;55.586;12.286;2022-11-15T15:37:54;13.20;71.30
31731;DHT22;18310;55.586;12.286;2022-11-15T15:40:57;13.20;71.20
31731;DHT22;18310;55.586;12.286;2022-11-15T15:44:03;13.20;71.30
31731;DHT22;18310;55.586;12.286;2022-11-15T15:47:10;13.20;71.20
31731;DHT22;18310;55.586;12.286;2022-11-15T15:50:21;13.20;71.00
31731;DHT22;18310;55.586;12.286;2022-11-15T15:53:28;13.20;70.60
31731;DHT22;18310;55.586;12.286;2022-11-15T15:56:32;13.10;70.50
31731;DHT22;18310;55.586;12.286;2022-11-15T15:59:35;13.20;70.40
31731;DHT22;18310;55.586;12.286;2022-11-15T16:02:39;13.20;70.40
31731;DHT22;18310;55.586;12.286;2022-11-15T16:05:44;13.20;70.20
31731;DHT22;18310;55.586;12.286;2022-11-15T16:08:48;12.90;69.80
31731;DHT22;18310;55.586;12.286;2022-11-15T16:12:11;13.20;69.60
31731;DHT22;18310;55.586;12.286;2022-11-15T16:15:17;13.20;69.90
31731;DHT22;18310;55.586;12.286;2022-11-15T16:18:21;13.20;70.00
31731;DHT22;18310;55.586;12.286;2022-11-15T16:21:26;13.20;69.90
31731;DHT22;18310;55.586;12.286;2022-11-15T16:24:31;13.70;70.00
31731;DHT22;18310;55.586;12.286;2022-11-15T16:27:36;13.20;70.10
31731;DHT22;18310;55.586;12.286;2022-11-15T16:30:47;13.20;70.20
31731;DHT22;18310;55.586;12.286;2022-11-15T16:33:58;14.10;70.80
31731;DHT22;18310;55.586;12.286;2022-11-15T16:37:21;13.20;70.20
31731;DHT22;18310;55.586;12.286;2022-11-15T16:40:49;13.20;70.00
31731;DHT22;18310;55.586;12.286;2022-11-15T16:44:01;13.20;70.00
31731;DHT22;18310;55.586;12.286;2022-11-15T16:47:14;13.30;70.10
31731;DHT22;18310;55.586;12.286;2022-11-15T16:50:22;13.20;70.00
31731;DHT22;18310;55.586;12.286;2022-11-15T16:53:29;13.20;70.00
31731;DHT22;18310;55.586;12.286;2022-11-15T16:56:33;13.20;69.60
31731;DHT22;18310;55.586;12.286;2022-11-15T16:59:37;13.20;69.60
31731;DHT22;18310;55.586;12.286;2022-11-15T17:02:44;13.20;69.30
31731;DHT22;18310;55.586;12.286;2022-11-15T17:05:51;13.20;69.10
31731;DHT22;18310;55.586;12.286;2022-11-15T17:09:04;13.00;68.80
31731;DHT22;18310;55.586;12.286;2022-11-15T17:12:08;13.90;69.70
31731;DHT22;18310;55.586;12.286;2022-11-15T17:15:13;13.30;69.10
31731;DHT22;18310;55.586;12.286;2022-11-15T17:18:17;13.30;69.10
31731;DHT22;18310;55.586;12.286;2022-11-15T17:21:23;13.30;68.70
31731;DHT22;18310;55.586;12.286;2022-11-15T17:24:38;13.30;68.90
31731;DHT22;18310;55.586;12.286;2022-11-15T17:27:46;13.40;68.70
31731;DHT22;18310;55.586;12.286;2022-11-15T17:30:49;13.40;68.20
31731;DHT22;18310;55.586;12.286;2022-11-15T17:33:52;13.50;68.20
31731;DHT22;18310;55.586;12.286;2022-11-15T17:36:56;13.40;67.80
31731;DHT22;18310;55.586;12.286;2022-11-15T17:40:00;14.10;67.90
31731;DHT22;18310;55.586;12.286;2022-11-15T17:43:04;13.30;67.40
31731;DHT22;18310;55.586;12.286;2022-11-15T17:46:13;13.30;67.70
31731;DHT22;18310;55.586;12.286;2022-11-15T17:49:22;13.30;67.90
31731;DHT22;18310;55.586;12.286;2022-11-15T17:52:27;13.40;68.20
31731;DHT22;18310;55.586;12.286;2022-11-15T17:55:35;13.30;67.90
31731;DHT22;18310;55.586;12.286;2022-11-15T17:58:47;13.30;67.90
31731;DHT22;18310;55.586;12.286;2022-11-15T18:01:52;13.40;67.80
31731;DHT22;18310;55.586;12.286;2022-11-15T18:05:16;13.40;67.80
31731;DHT22;18310;55.586;12.286;2022-11-15T18:08:20;13.40;67.90
31731;DHT22;18310;55.586;12.286;2022-11-15T18:11:30;13.40;68.00
31731;DHT22;18310;55.586;12.286;2022-11-15T18:14:36;13.40;68.00
31731;DHT22;18310;55.586;12.286;2022-11-15T18:17:40;13.10;67.70
31731;DHT22;18310;55.586;12.286;2022-11-15T18:20:45;13.40;67.90
31731;DHT22;18310;55.586;12.286;2022-11-15T18:23:53;13.40;68.20
31731;DHT22;18310;55.586;12.286;2022-11-15T18:27:02;13.40;68.10
31731;DHT22;18310;55.586;12.286;2022-11-15T18:30:12;13.40;68.10
31731;DHT22;18310;55.586;12.286;2022-11-15T18:33:19;13.40;68.10
31731;DHT22;18310;55.586;12.286;2022-11-15T18:36:29;13.40;68.90
31731;DHT22;18310;55.586;12.286;2022-11-15T18:39:34;13.50;68.10
31731;DHT22;18310;55.586;12.286;2022-11-15T18:42:42;13.40;68.30
31731;DHT22;18310;55.586;12.286;2022-11-15T18:45:54;13.40;68.20
31731;DHT22;18310;55.586;12.286;2022-11-15T18:49:00;13.50;68.30
31731;DHT22;18310;55.586;12.286;2022-11-15T18:52:04;13.40;68.40
31731;DHT22;18310;55.586;12.286;2022-11-15T18:55:11;13.40;68.60
31731;DHT22;18310;55.586;12.286;2022-11-15T18:58:18;14.00;69.00
31731;DHT22;18310;55.586;12.286;2022-11-15T19:01:25;13.50;68.60
31731;DHT22;18310;55.586;12.286;2022-11-15T19:04:30;13.40;68.40
31731;DHT22;18310;55.586;12.286;2022-11-15T19:07:34;13.40;68.50
31731;DHT22;18310;55.586;12.286;2022-11-15T19:10:39;13.40;68.40
31731;DHT22;18310;55.586;12.286;2022-11-15T19:13:46;13.40;68.50
31731;DHT22;18310;55.586;12.286;2022-11-15T19:16:50;13.30;68.50
31731;DHT22;18310;55.586;12.286;2022-11-15T19:19:55;14.20;69.10
31731;DHT22;18310;55.586;12.286;2022-11-15T19:23:00;13.40;68.70
31731;DHT22;18310;55.586;12.286;2022-11-15T19:26:05;13.40;68.70
31731;DHT22;18310;55.586;12.286;2022-11-15T19:29:15;13.40;68.80
31731;DHT22;18310;55.586;12.286;2022-11-15T19:32:19;13.40;69.30
31731;DHT22;18310;55.586;12.286;2022-11-15T19:35:23;13.80;69.50
31731;DHT22;18310;55.586;12.286;2022-11-15T19:38:29;13.40;69.40